Time;durP1;ratioP1;P1;durP2;ratioP2;P2;SDS_P1;SDS_P2;PMS_P1;PMS_P2;Temp;Humidity;BMP_temperature;BMP_pressure;BME280_temperature;BME280_humidity;BME280_pressure;Samples;Min_cycle;Max_cycle;Signal;HPM_P1;HPM_P2
2022/08/22 00:00:42;;;;;;;31.97;8.50;;;;;;;21.06;80.29;99359.07;1766833;81;21058;-76
2022/08/22 00:03:17;;;;;;;22.70;8.28;;;;;;;21.03;80.34;99364.14;1763082;80;21023;-78
2022/08/22 00:06:04;;;;;;;28.67;7.75;;;;;;;20.99;80.27;99361.92;1751028;80;22253;-76
2022/08/22 00:09:02;;;;;;;29.35;8.73;;;;;;;21.03;80.20;99365.48;1760520;80;21029;-73
2022/08/22 00:11:46;;;;;;;30.85;8.38;;;;;;;21.07;80.30;99362.58;1766571;81;21013;-75
2022/08/22 00:14:33;;;;;;;35.60;9.10;;;;;;;21.01;80.17;99361.17;1768568;81;21029;-74
2022/08/22 00:17:50;;;;;;;28.83;8.35;;;;;;;20.98;80.38;99362.19;1777436;80;21644;-76
2022/08/22 00:20:46;;;;;;;35.25;7.72;;;;;;;20.93;80.44;99365.61;1782537;80;21030;-72
2022/08/22 00:23:58;;;;;;;26.57;8.20;;;;;;;20.96;80.34;99367.02;1728688;81;21893;-75
2022/08/22 00:26:45;;;;;;;29.42;8.88;;;;;;;20.95;80.13;99364.83;1740485;81;21552;-73
2022/08/22 00:29:23;;;;;;;31.90;8.40;;;;;;;20.89;80.31;99369.86;1791596;78;21023;-75
2022/08/22 00:31:57;;;;;;;29.92;7.35;;;;;;;20.83;80.47;99374.09;1800056;79;21089;-77
2022/08/22 00:37:26;;;;;;;32.38;8.63;;;;;;;20.91;79.94;99360.98;1867098;76;22481;-74
2022/08/22 00:40:15;;;;;;;34.50;8.55;;;;;;;20.84;79.88;99367.06;1809528;77;21071;-74
2022/08/22 00:42:56;;;;;;;22.85;7.15;;;;;;;20.79;79.74;99369.70;1840293;77;21205;-76
2022/08/22 00:45:43;;;;;;;33.13;8.60;;;;;;;20.74;79.63;99375.81;1805594;78;20922;-73
2022/08/22 00:48:54;;;;;;;24.23;7.25;;;;;;;20.69;79.63;99377.09;1789672;78;21017;-73
2022/08/22 00:51:55;;;;;;;26.48;7.22;;;;;;;20.71;79.31;99384.95;1801133;77;20988;-74
2022/08/22 00:54:37;;;;;;;30.25;8.10;;;;;;;20.68;79.04;99382.19;1811765;77;21037;-75
2022/08/22 00:57:24;;;;;;;27.77;7.85;;;;;;;20.58;79.08;99386.84;1825452;78;21474;-74
2022/08/22 01:00:07;;;;;;;21.07;7.10;;;;;;;20.50;79.02;99388.59;1831100;77;21506;-73
2022/08/22 01:03:10;;;;;;;24.55;6.35;;;;;;;20.45;79.05;99384.45;1834602;76;21002;-73
2022/08/22 01:06:28;;;;;;;30.97;7.62;;;;;;;20.47;78.88;99379.62;1810031;78;21068;-75
2022/08/22 01:09:15;;;;;;;29.12;7.85;;;;;;;20.54;78.71;99375.44;1828582;77;21055;-73
2022/08/22 01:12:14;;;;;;;27.35;7.17;;;;;;;20.51;79.11;99376.72;1820360;77;21514;-75
2022/08/22 01:14:58;;;;;;;22.75;7.17;;;;;;;20.48;79.23;99381.27;1825988;78;20998;-74
2022/08/22 01:18:09;;;;;;;33.15;7.92;;;;;;;20.45;79.31;99377.70;1805597;78;21063;-75
2022/08/22 01:20:48;;;;;;;26.70;7.42;;;;;;;20.49;79.20;99378.84;1819670;78;21017;-74
2022/08/22 01:24:01;;;;;;;21.10;6.00;;;;;;;20.52;78.99;99385.13;1828781;77;21040;-77
2022/08/22 01:27:06;;;;;;;26.15;7.87;;;;;;;20.45;79.00;99383.09;1801836;77;21145;-74
2022/08/22 01:30:22;;;;;;;27.80;7.35;;;;;;;20.39;79.27;99385.41;1833425;77;21045;-74
2022/08/22 01:33:13;;;;;;;20.20;6.30;;;;;;;20.41;78.97;99381.41;1824076;77;20975;-74
2022/08/22 01:35:58;;;;;;;26.75;6.03;;;;;;;20.43;79.00;99389.27;1830616;77;21001;-74
2022/08/22 01:39:00;;;;;;;21.60;6.85;;;;;;;20.36;79.09;99388.61;1829488;77;21071;-73
2022/08/22 01:41:47;;;;;;;24.57;6.78;;;;;;;20.32;79.30;99386.92;1798248;77;21095;-72
2022/08/22 01:44:24;;;;;;;29.42;6.65;;;;;;;20.34;79.07;99387.50;1814953;77;21028;-74
2022/08/22 01:46:59;;;;;;;25.23;6.83;;;;;;;20.37;78.88;99390.23;1823773;77;21005;-74
2022/08/22 01:49:34;;;;;;;23.12;7.45;;;;;;;20.33;78.84;99390.43;1802598;77;21512;-73
2022/08/22 01:52:18;;;;;;;27.32;7.10;;;;;;;20.30;78.85;99389.04;1816769;78;21000;-72
2022/08/22 01:54:57;;;;;;;19.55;6.72;;;;;;;20.26;79.10;99385.70;1821360;77;21136;-71
2022/08/22 01:57:23;;;;;;;23.52;7.12;;;;;;;20.28;79.25;99396.55;1821011;77;21034;-74
2022/08/22 01:59:54;;;;;;;27.95;7.15;;;;;;;20.33;79.38;99393.94;1809008;76;21060;-74
2022/08/22 02:02:30;;;;;;;23.62;6.40;;;;;;;20.29;79.48;99395.48;1827835;77;21124;-71
2022/08/22 02:05:18;;;;;;;25.50;6.97;;;;;;;20.25;79.14;99396.21;1820381;77;21041;-71
2022/08/22 02:08:19;;;;;;;26.93;6.87;;;;;;;20.15;78.74;99388.74;1835167;77;21805;-75
2022/08/22 02:10:58;;;;;;;17.48;6.28;;;;;;;20.17;78.45;99392.02;1815268;77;20991;-71
2022/08/22 02:13:54;;;;;;;21.70;7.70;;;;;;;20.14;78.23;99401.38;1843825;77;21204;-73
2022/08/22 02:16:32;;;;;;;21.57;6.03;;;;;;;20.05;77.97;99401.49;1815037;77;21501;-76
2022/08/22 02:19:16;;;;;;;25.20;6.58;;;;;;;19.96;77.91;99394.29;1804842;77;21492;-75
2022/08/22 02:22:22;;;;;;;24.57;6.53;;;;;;;19.92;77.94;99398.52;1818489;78;21629;-75
2022/08/22 02:24:54;;;;;;;22.42;6.10;;;;;;;19.95;78.07;99397.22;1827022;77;20994;-75
2022/08/22 02:27:50;;;;;;;22.07;6.78;;;;;;;19.94;78.06;99399.10;1758778;80;20989;-73
2022/08/22 02:30:26;;;;;;;23.92;6.95;;;;;;;19.89;78.22;99400.87;1778419;80;21045;-74
2022/08/22 02:33:10;;;;;;;20.75;6.62;;;;;;;19.84;78.37;99392.16;1828011;77;21474;-74
2022/08/22 02:35:43;;;;;;;25.80;6.15;;;;;;;19.80;78.50;99397.20;1799536;77;21487;-73
2022/08/22 02:38:37;;;;;;;29.85;6.50;;;;;;;19.82;78.47;99401.83;1793271;77;21077;-75
2022/08/22 02:41:39;;;;;;;23.87;6.17;;;;;;;19.88;78.30;99403.29;1806888;77;21572;-75
2022/08/22 02:44:19;;;;;;;23.32;6.30;;;;;;;19.83;78.75;99405.33;1796863;77;21129;-76
2022/08/22 02:47:08;;;;;;;23.42;6.10;;;;;;;19.75;78.75;99400.31;1813732;77;21537;-75
2022/08/22 02:50:14;;;;;;;22.98;6.37;;;;;;;19.70;78.68;99411.78;1794415;79;21122;-75
2022/08/22 02:53:05;;;;;;;21.87;6.62;;;;;;;19.72;78.70;99408.35;1816584;77;21427;-75
2022/08/22 02:55:52;;;;;;;23.05;7.17;;;;;;;19.76;78.68;99408.67;1813566;79;21561;-74
2022/08/22 02:58:44;;;;;;;23.52;6.03;;;;;;;19.70;79.14;99408.24;1762433;78;21076;-72
2022/08/22 03:01:23;;;;;;;19.45;6.78;;;;;;;19.64;79.68;99414.05;1809358;77;21007;-74
2022/08/22 03:03:49;;;;;;;23.47;5.95;;;;;;;19.67;79.99;99413.59;1810490;77;21190;-74
2022/08/22 03:06:39;;;;;;;26.23;6.67;;;;;;;19.72;80.16;99416.44;1801980;77;21001;-74
2022/08/22 03:09:23;;;;;;;26.90;7.20;;;;;;;19.70;80.31;99415.82;1814230;79;21014;-75
2022/08/22 03:12:14;;;;;;;19.87;6.67;;;;;;;19.66;80.61;99418.67;1821534;77;21010;-73
2022/08/22 03:14:46;;;;;;;32.23;6.53;;;;;;;19.62;80.84;99418.34;1810358;77;21497;-75
2022/08/22 03:17:29;;;;;;;29.55;6.40;;;;;;;19.68;80.38;99417.91;1800315;77;21141;-75
2022/08/22 03:20:08;;;;;;;26.80;8.18;;;;;;;19.73;80.21;99415.36;1812387;78;21033;-73
2022/08/22 03:23:01;;;;;;;21.87;6.30;;;;;;;19.69;80.67;99415.52;1816383;77;21080;-75
2022/08/22 03:25:58;;;;;;;23.80;7.17;;;;;;;19.66;80.57;99426.75;1829455;77;21085;-73
2022/08/22 03:28:31;;;;;;;21.97;5.90;;;;;;;19.61;80.73;99420.73;1800141;79;21022;-76
2022/08/22 03:31:19;;;;;;;26.52;8.28;;;;;;;19.66;80.89;99429.45;1801447;77;21053;-73
2022/08/22 03:34:19;;;;;;;25.92;6.92;;;;;;;19.73;81.03;99426.14;1811047;77;21561;-71
2022/08/22 03:36:49;;;;;;;25.15;7.47;;;;;;;19.71;81.32;99430.11;1803454;77;21317;-72
2022/08/22 03:39:23;;;;;;;23.27;6.50;;;;;;;19.70;81.68;99430.64;1755364;76;21065;-75
2022/08/22 03:42:17;;;;;;;24.27;6.20;;;;;;;19.73;81.53;99429.37;1844034;77;21014;-74
2022/08/22 03:45:09;;;;;;;27.10;6.20;;;;;;;19.82;81.38;99440.09;1798227;77;26460;-76
2022/08/22 03:47:58;;;;;;;23.22;7.35;;;;;;;19.82;81.53;99442.79;1818054;77;21531;-73
2022/08/22 03:50:40;;;;;;;20.90;7.00;;;;;;;19.74;81.49;99443.13;1799881;77;20998;-73
2022/08/22 03:53:24;;;;;;;19.32;5.65;;;;;;;19.72;81.84;99439.84;1773165;79;21083;-73
2022/08/22 03:56:25;;;;;;;27.82;7.30;;;;;;;19.76;81.69;99446.41;1791398;79;21006;-73
2022/08/22 03:59:16;;;;;;;23.10;7.08;;;;;;;19.82;81.33;99448.99;1797744;77;21136;-75
2022/08/22 04:02:16;;;;;;;26.42;6.67;;;;;;;19.88;81.37;99453.16;1788512;77;21076;-72
2022/08/22 04:05:32;;;;;;;17.55;6.30;;;;;;;19.93;80.92;99444.63;1804162;77;21540;-74
2022/08/22 04:08:10;;;;;;;19.48;5.65;;;;;;;19.95;80.63;99451.13;1809379;79;21010;-74
2022/08/22 04:11:25;;;;;;;18.05;6.40;;;;;;;20.06;80.33;99454.88;1805646;77;21178;-75
2022/08/22 04:14:18;;;;;;;21.70;6.10;;;;;;;20.15;79.95;99454.27;1802936;77;21245;-75
2022/08/22 04:17:00;;;;;;;21.60;6.63;;;;;;;20.17;79.65;99454.05;1801739;77;20998;-75
2022/08/22 04:19:44;;;;;;;21.93;6.42;;;;;;;20.19;79.32;99468.11;1835971;77;21249;-74
2022/08/22 04:22:41;;;;;;;25.65;6.28;;;;;;;20.23;78.83;99470.08;1824944;77;21066;-73
2022/08/22 04:25:17;;;;;;;15.90;5.95;;;;;;;20.37;78.10;99461.18;1827383;77;21520;-72
2022/08/22 04:27:55;;;;;;;19.80;6.25;;;;;;;20.51;76.97;99467.12;1811740;79;22233;-74
2022/08/22 04:30:37;;;;;;;23.10;6.60;;;;;;;20.54;76.20;99466.65;1803530;77;21135;-73
2022/08/22 04:33:25;;;;;;;21.97;6.40;;;;;;;20.57;76.17;99470.73;1805984;77;21633;-75
2022/08/22 04:36:17;;;;;;;20.25;6.28;;;;;;;20.59;76.17;99472.19;1815585;76;21002;-76
2022/08/22 04:38:49;;;;;;;15.60;6.40;;;;;;;20.76;76.11;99479.50;1800897;77;21520;-77
2022/08/22 04:41:26;;;;;;;18.52;5.83;;;;;;;20.95;75.21;99480.93;1833550;77;21104;-72
2022/08/22 04:44:07;;;;;;;16.20;6.05;;;;;;;21.10;74.51;99474.18;1783181;77;20997;-77
2022/08/22 04:46:53;;;;;;;14.05;6.12;;;;;;;21.13;74.20;99470.97;1795898;77;21636;-75
2022/08/22 04:49:26;;;;;;;21.42;5.80;;;;;;;21.16;73.51;99473.20;1820593;77;20986;-76
2022/08/22 04:52:00;;;;;;;23.60;6.22;;;;;;;21.18;73.36;99475.94;1798190;76;21489;-75
2022/08/22 04:55:22;;;;;;;17.40;5.90;;;;;;;21.20;72.82;99478.39;1786311;76;21166;-74
2022/08/22 04:58:12;;;;;;;17.00;6.65;;;;;;;21.20;72.46;99468.41;1815669;77;21505;-77
2022/08/22 05:01:00;;;;;;;20.97;5.75;;;;;;;21.16;72.32;99472.66;1786134;77;21088;-76
2022/08/22 05:03:27;;;;;;;26.00;5.95;;;;;;;21.23;71.45;99487.88;1793624;78;21346;-76
2022/08/22 05:05:57;;;;;;;14.90;5.50;;;;;;;21.28;71.27;99479.34;1803919;77;21331;-76
2022/08/22 05:08:26;;;;;;;17.35;5.42;;;;;;;21.25;71.22;99479.84;1803441;77;21397;-77
2022/08/22 05:10:53;;;;;;;16.70;5.95;;;;;;;21.25;71.46;99483.05;1806432;79;21074;-77
2022/08/22 05:13:31;;;;;;;18.87;6.70;;;;;;;21.25;71.23;99483.89;1814863;77;20986;-77
2022/08/22 05:16:02;;;;;;;17.92;6.03;;;;;;;21.27;71.03;99481.77;1802922;77;21591;-78
2022/08/22 05:18:34;;;;;;;21.70;6.20;;;;;;;21.30;70.94;99482.61;1807562;77;21034;-77
2022/08/22 05:21:02;;;;;;;17.62;5.08;;;;;;;21.33;70.66;99486.73;1801966;77;22038;-75
2022/08/22 05:23:37;;;;;;;26.85;7.25;;;;;;;21.33;70.39;99481.32;1798802;79;21025;-76
2022/08/22 05:26:05;;;;;;;23.47;5.80;;;;;;;21.34;70.46;99486.48;1792472;79;22052;-74
2022/08/22 05:28:38;;;;;;;19.17;6.47;;;;;;;21.34;70.37;99494.59;1814539;78;21054;-76
2022/08/22 05:31:17;;;;;;;19.52;5.92;;;;;;;21.36;70.41;99490.27;1801127;77;20998;-75
2022/08/22 05:33:47;;;;;;;19.82;5.90;;;;;;;21.45;70.35;99487.48;1797804;77;21236;-75
2022/08/22 05:36:24;;;;;;;17.32;6.62;;;;;;;21.53;70.05;99487.61;1814065;78;21521;-75
2022/08/22 05:38:59;;;;;;;23.92;5.20;;;;;;;21.51;69.51;99491.90;1813753;78;21081;-76
2022/08/22 05:41:28;;;;;;;16.73;6.03;;;;;;;21.48;69.39;99492.92;1806412;77;21111;-76
2022/08/22 05:43:54;;;;;;;18.32;5.53;;;;;;;21.50;69.10;99490.78;1815702;77;21006;-75
2022/08/22 05:46:42;;;;;;;21.33;6.20;;;;;;;21.47;69.02;99488.59;1802908;77;21288;-76
2022/08/22 05:49:38;;;;;;;19.95;6.28;;;;;;;21.49;69.27;99500.78;1752325;79;21053;-76
2022/08/22 05:52:16;;;;;;;21.80;6.53;;;;;;;21.51;69.38;99493.80;1812456;77;21003;-76
2022/08/22 05:55:25;;;;;;;19.57;6.17;;;;;;;21.49;69.12;99496.73;1814234;77;21510;-75
2022/08/22 05:58:09;;;;;;;16.45;5.50;;;;;;;21.49;69.05;99500.78;1814748;77;21096;-74
2022/08/22 06:00:41;;;;;;;15.00;5.10;;;;;;;21.53;68.84;99502.47;1813360;77;21119;-78
2022/08/22 06:03:25;;;;;;;14.73;6.00;;;;;;;21.59;69.19;99506.37;1814288;77;21025;-77
2022/08/22 06:05:55;;;;;;;19.25;5.45;;;;;;;21.64;68.61;99501.57;1818917;77;21041;-77
2022/08/22 06:08:36;;;;;;;22.95;6.08;;;;;;;21.67;68.39;99500.25;1802571;77;20991;-77
2022/08/22 06:11:18;;;;;;;18.00;5.25;;;;;;;21.71;68.30;99493.28;1807680;77;21541;-79
2022/08/22 06:13:52;;;;;;;20.12;5.22;;;;;;;21.77;68.17;99491.77;1796127;77;21176;-78
2022/08/22 06:16:24;;;;;;;15.93;5.72;;;;;;;21.82;67.94;99501.02;1806759;77;20983;-76
2022/08/22 06:18:50;;;;;;;14.00;5.75;;;;;;;21.86;67.78;99492.16;1804582;77;21061;-78
2022/08/22 06:21:28;;;;;;;20.30;6.17;;;;;;;21.94;67.64;99499.86;1818376;77;21042;-83
2022/08/22 06:23:57;;;;;;;11.85;5.45;;;;;;;22.02;67.49;99494.56;1809472;77;21034;-82
2022/08/22 06:26:27;;;;;;;21.00;6.12;;;;;;;22.11;67.25;99496.29;1815528;77;21760;-82
2022/08/22 06:28:56;;;;;;;16.27;5.95;;;;;;;22.16;67.07;99497.17;1794956;77;21011;-82
2022/08/22 06:31:31;;;;;;;27.40;6.30;;;;;;;22.24;66.56;99496.47;1797757;77;21029;-84
2022/08/22 06:34:11;;;;;;;18.75;5.95;;;;;;;22.33;66.36;99495.00;1798262;77;21013;-85
2022/08/22 06:36:39;;;;;;;20.08;5.03;;;;;;;22.45;65.94;99495.68;1817893;77;20962;-84
2022/08/22 06:39:26;;;;;;;20.95;6.05;;;;;;;22.56;65.39;99496.09;1804582;77;21153;-84
2022/08/22 06:42:09;;;;;;;21.73;6.08;;;;;;;22.64;65.09;99483.16;1808475;77;21072;-83
2022/08/22 06:44:48;;;;;;;14.10;5.60;;;;;;;22.70;64.83;99488.93;1820539;77;21045;-84
2022/08/22 06:47:29;;;;;;;18.17;5.37;;;;;;;22.77;64.61;99492.23;1803909;77;21033;-82
2022/08/22 06:50:08;;;;;;;17.30;5.92;;;;;;;22.82;64.46;99495.01;1807346;77;21084;-82
2022/08/22 06:52:47;;;;;;;19.40;5.78;;;;;;;22.87;64.07;99494.23;1803050;77;21705;-82
2022/08/22 06:55:13;;;;;;;15.18;5.83;;;;;;;22.87;63.76;99492.36;1811747;77;21014;-82
2022/08/22 06:57:57;;;;;;;17.95;5.28;;;;;;;22.83;63.74;99488.53;1820894;77;20997;-83
2022/08/22 07:00:28;;;;;;;11.83;5.28;;;;;;;22.83;63.61;99484.47;1809233;77;21037;-83
2022/08/22 07:03:00;;;;;;;17.73;5.60;;;;;;;22.87;63.52;99484.75;1798275;77;21069;-83
2022/08/22 07:05:33;;;;;;;24.82;5.90;;;;;;;22.91;63.52;99485.36;1815737;77;21183;-83
2022/08/22 07:08:10;;;;;;;21.60;5.75;;;;;;;22.97;63.25;99474.84;1812028;77;21048;-82
2022/08/22 07:11:04;;;;;;;20.10;5.33;;;;;;;23.05;62.75;99480.91;1821644;77;21010;-85
2022/08/22 07:13:35;;;;;;;19.60;5.55;;;;;;;23.13;62.79;99479.89;1822725;78;20943;-87
2022/08/22 07:16:06;;;;;;;13.78;5.53;;;;;;;23.22;62.49;99488.39;1818728;77;20934;-85
2022/08/22 07:18:32;;;;;;;29.18;6.20;;;;;;;23.33;62.02;99483.86;1823870;77;21064;-78
2022/08/22 07:21:07;;;;;;;14.05;4.67;;;;;;;23.44;61.39;99482.05;1823912;77;21523;-76
2022/08/22 07:23:40;;;;;;;20.25;5.78;;;;;;;23.52;61.29;99478.31;1812240;77;21045;-79
2022/08/22 07:26:39;;;;;;;20.25;5.25;;;;;;;23.66;61.19;99476.00;1809890;77;20998;-78
2022/08/22 07:29:32;;;;;;;16.07;4.72;;;;;;;23.81;61.12;99475.84;1816300;77;21014;-78
2022/08/22 07:32:07;;;;;;;17.40;5.85;;;;;;;23.96;60.39;99470.50;1802713;77;21533;-76
2022/08/22 07:35:08;;;;;;;23.90;5.35;;;;;;;24.11;59.51;99468.41;1815816;77;21106;-78
2022/08/22 07:38:02;;;;;;;20.35;5.90;;;;;;;24.24;58.54;99469.30;1809052;77;21093;-77
2022/08/22 07:40:53;;;;;;;19.27;5.83;;;;;;;24.41;56.96;99473.13;1806374;77;21037;-77
2022/08/22 07:43:40;;;;;;;22.27;5.58;;;;;;;24.56;56.17;99474.31;1796867;77;21025;-75
2022/08/22 07:46:30;;;;;;;21.77;5.97;;;;;;;24.67;55.96;99478.70;1823043;77;21043;-74
2022/08/22 07:49:22;;;;;;;20.57;4.87;;;;;;;24.77;56.08;99473.28;1813149;77;21021;-75
2022/08/22 07:51:54;;;;;;;19.07;5.90;;;;;;;24.88;56.14;99472.77;1820682;77;21049;-75
2022/08/22 07:54:38;;;;;;;17.85;4.55;;;;;;;24.98;55.83;99472.78;1819483;77;20946;-75
2022/08/22 07:57:12;;;;;;;21.65;5.33;;;;;;;25.05;55.70;99467.91;1809578;77;21033;-73
2022/08/22 07:59:49;;;;;;;21.05;4.60;;;;;;;25.14;55.52;99466.00;1789683;77;21420;-77
2022/08/22 08:02:17;;;;;;;19.20;5.00;;;;;;;25.24;55.20;99464.66;1823281;77;21025;-76
2022/08/22 08:04:43;;;;;;;15.13;5.33;;;;;;;25.33;55.22;99463.59;1818821;77;21006;-74
2022/08/22 08:07:12;;;;;;;15.55;4.97;;;;;;;25.46;55.49;99465.77;1819953;77;21010;-75
2022/08/22 08:09:44;;;;;;;13.90;4.97;;;;;;;25.58;55.18;99465.47;1815984;77;21048;-76
2022/08/22 08:12:11;;;;;;;20.00;4.72;;;;;;;25.67;54.79;99464.64;1820922;77;21106;-75
2022/08/22 08:14:40;;;;;;;21.77;5.87;;;;;;;25.76;54.64;99458.63;1823683;76;22050;-75
2022/08/22 08:17:16;;;;;;;16.15;4.15;;;;;;;25.85;54.33;99461.88;1834236;77;21200;-74
2022/08/22 08:19:43;;;;;;;18.05;5.10;;;;;;;25.96;54.13;99457.78;1831485;77;21372;-76
2022/08/22 08:22:16;;;;;;;16.07;4.25;;;;;;;26.11;53.52;99461.82;1835310;77;21022;-74
2022/08/22 08:24:43;;;;;;;18.32;4.87;;;;;;;26.19;53.04;99457.71;1830271;77;21095;-75
2022/08/22 08:30:13;;;;;;;15.30;4.78;;;;;;;26.37;52.51;99454.94;1837287;77;21045;-76
2022/08/22 08:32:41;;;;;;;21.87;4.62;;;;;;;26.54;51.65;99446.38;1796059;77;21521;-76
2022/08/22 08:35:24;;;;;;;21.62;4.53;;;;;;;26.68;51.31;99454.24;1827252;77;21088;-75
2022/08/22 08:37:57;;;;;;;18.87;4.47;;;;;;;26.80;50.94;99451.97;1814319;77;21843;-77
2022/08/22 08:40:33;;;;;;;;;;;;;;;26.94;50.29;99453.51;1815505;77;20986;-73
2022/08/22 08:43:27;;;;;;;18.05;4.67;;;;;;;27.06;49.73;99452.63;1806046;77;20151;-75
2022/08/22 08:46:06;;;;;;;15.78;4.92;;;;;;;27.18;50.21;99453.61;1817465;77;21467;-75
2022/08/22 08:49:02;;;;;;;21.25;5.05;;;;;;;27.32;48.89;99452.99;1818804;77;21057;-76
2022/08/22 08:52:01;;;;;;;29.75;5.70;;;;;;;27.44;48.92;99448.77;1825743;76;21823;-73
2022/08/22 08:54:55;;;;;;;14.87;4.50;;;;;;;27.57;48.80;99450.58;1811696;77;21029;-71
2022/08/22 08:57:49;;;;;;;18.37;4.35;;;;;;;27.70;49.21;99450.43;1799616;77;21033;-73
2022/08/22 09:00:22;;;;;;;24.20;5.33;;;;;;;27.84;49.24;99448.09;1816018;77;21065;-75
2022/08/22 09:03:00;;;;;;;16.70;4.70;;;;;;;28.04;49.52;99444.91;1833151;77;26545;-76
2022/08/22 09:05:59;;;;;;;18.75;5.28;;;;;;;28.23;49.04;99452.58;1816018;77;21214;-78
2022/08/22 09:08:34;;;;;;;15.58;4.40;;;;;;;28.38;49.05;99448.05;1826918;77;21512;-74
2022/08/22 09:11:21;;;;;;;16.45;4.55;;;;;;;28.53;49.14;99445.14;1810808;77;21053;-80
2022/08/22 09:14:11;;;;;;;22.82;5.05;;;;;;;28.73;48.49;99450.85;1677663;82;21037;-78
2022/08/22 09:17:29;;;;;;;22.15;5.37;;;;;;;29.04;48.62;99451.75;1776005;79;21512;-76
2022/08/22 09:20:12;;;;;;;17.32;4.37;;;;;;;29.49;47.77;99449.38;1753451;80;22399;-79
2022/08/22 09:23:20;;;;;;;25.92;4.92;;;;;;;30.06;46.91;99449.73;1750054;80;21054;-79
2022/08/22 09:26:06;;;;;;;16.45;4.37;;;;;;;30.46;45.56;99436.30;1718263;81;21112;-77
2022/08/22 09:28:53;;;;;;;12.03;4.45;;;;;;;30.90;44.80;99433.39;1768682;77;21012;-78
2022/08/22 09:31:34;;;;;;;15.35;5.28;;;;;;;31.37;44.24;99432.52;1797953;77;21053;-78
2022/08/22 09:34:23;;;;;;;18.15;5.05;;;;;;;31.85;42.92;99428.22;1791741;78;21776;-75
2022/08/22 09:37:06;;;;;;;13.32;4.40;;;;;;;32.33;42.67;99428.20;1799806;79;21082;-74
2022/08/22 09:39:54;;;;;;;18.35;4.83;;;;;;;32.85;41.76;99427.45;1810393;78;21029;-76
2022/08/22 09:42:47;;;;;;;13.60;4.17;;;;;;;33.32;39.99;99424.00;1818655;77;21026;-74
2022/08/22 09:45:22;;;;;;;19.10;4.80;;;;;;;33.69;39.54;99429.93;1785869;78;20998;-77
2022/08/22 09:47:59;;;;;;;15.88;4.37;;;;;;;34.04;38.99;99425.62;1810622;78;21177;-77
2022/08/22 09:50:54;;;;;;;20.15;5.58;;;;;;;34.39;38.03;99413.03;1824908;77;21025;-80
2022/08/22 09:53:49;;;;;;;25.60;5.35;;;;;;;34.78;37.38;99413.71;1815545;77;21072;-75
2022/08/22 09:56:22;;;;;;;14.03;4.45;;;;;;;35.10;37.07;99413.48;1825876;76;21022;-76
2022/08/22 09:59:00;;;;;;;21.95;5.60;;;;;;;35.45;36.18;99418.66;1819983;77;21529;-75
2022/08/22 10:01:31;;;;;;;21.57;5.83;;;;;;;35.74;35.36;99415.50;1812600;77;21195;-75
2022/08/22 10:04:37;;;;;;;19.02;5.10;;;;;;;35.91;35.38;99415.81;1810796;77;21034;-74
2022/08/22 10:07:35;;;;;;;26.97;5.03;;;;;;;36.20;35.38;99412.02;1805915;78;20994;-77
2022/08/22 10:10:45;;;;;;;20.48;5.53;;;;;;;36.56;35.53;99416.66;1819707;78;21013;-75
2022/08/22 10:13:44;;;;;;;20.80;5.80;;;;;;;36.94;35.15;99415.39;1808143;78;21013;-75
2022/08/22 10:16:32;;;;;;;17.95;5.87;;;;;;;37.26;34.58;99421.01;1812303;78;21154;-73
2022/08/22 10:19:23;;;;;;;21.60;6.25;;;;;;;37.55;34.36;99417.03;1813503;77;21624;-72
2022/08/22 10:22:24;;;;;;;26.87;5.22;;;;;;;37.77;34.22;99421.73;1815452;77;21019;-74
2022/08/22 10:25:08;;;;;;;17.40;5.42;;;;;;;38.07;34.45;99419.88;1807637;78;21009;-74
2022/08/22 10:27:43;;;;;;;20.88;5.78;;;;;;;38.46;33.65;99419.94;1813719;78;21017;-76
2022/08/22 10:30:21;;;;;;;17.40;5.25;;;;;;;38.73;32.96;99422.31;1816229;78;21118;-75
2022/08/22 10:33:16;;;;;;;25.08;5.97;;;;;;;38.98;32.90;99426.97;1815841;77;21601;-75
2022/08/22 10:35:57;;;;;;;34.38;7.42;;;;;;;39.12;31.86;99430.06;1790237;77;21015;-77
2022/08/22 10:38:32;;;;;;;28.92;6.92;;;;;;;39.21;31.31;99418.70;1813179;77;21128;-77
2022/08/22 10:41:08;;;;;;;27.82;6.60;;;;;;;39.33;31.55;99428.86;1804893;77;21093;-75
2022/08/22 10:44:01;;;;;;;34.27;8.35;;;;;;;39.54;30.25;99421.48;1810172;77;21216;-75
2022/08/22 10:46:39;;;;;;;39.27;7.72;;;;;;;39.50;30.57;99418.66;1797159;78;21025;-76
2022/08/22 10:49:13;;;;;;;47.70;8.78;;;;;;;39.55;30.51;99420.31;1749708;80;21048;-76
2022/08/22 10:51:46;;;;;;;47.90;8.63;;;;;;;39.69;30.38;99427.48;1808431;77;21111;-76
2022/08/22 10:54:42;;;;;;;31.77;7.70;;;;;;;39.85;29.79;99425.16;1805795;77;20974;-76
2022/08/22 10:57:35;;;;;;;36.83;8.65;;;;;;;40.04;30.29;99423.69;1809378;77;21212;-81
2022/08/22 11:00:36;;;;;;;36.88;8.45;;;;;;;40.31;29.71;99422.27;1809548;77;21038;-83
2022/08/22 11:03:37;;;;;;;34.20;8.33;;;;;;;40.52;29.63;99429.34;1817301;76;21005;-82
2022/08/22 11:06:42;;;;;;;39.27;9.00;;;;;;;40.63;29.41;99428.89;1805150;77;21119;-83
2022/08/22 11:09:17;;;;;;;34.63;8.48;;;;;;;40.77;29.75;99427.69;1817362;77;20982;-79
2022/08/22 11:12:19;;;;;;;35.83;9.48;;;;;;;41.06;29.29;99431.59;1830031;77;21121;-81
2022/08/22 11:15:06;;;;;;;42.23;8.85;;;;;;;41.02;29.23;99428.56;1804526;77;21061;-78
2022/08/22 11:18:15;;;;;;;50.78;10.82;;;;;;;41.04;29.25;99428.98;1812274;77;21592;-76
2022/08/22 11:21:20;;;;;;;43.50;10.50;;;;;;;41.26;29.12;99427.23;1819169;77;21002;-81
2022/08/22 11:24:18;;;;;;;47.53;9.50;;;;;;;41.46;28.89;99425.05;1818840;77;21116;-78
2022/08/22 11:26:59;;;;;;;44.05;8.75;;;;;;;41.68;28.85;99428.83;1768690;77;21222;-79
2022/08/22 11:29:34;;;;;;;37.83;9.23;;;;;;;42.01;28.66;99428.46;1811811;77;20990;-81
2022/08/22 11:32:14;;;;;;;47.93;10.15;;;;;;;42.64;28.36;99426.46;1796958;77;20987;-76
2022/08/22 11:35:06;;;;;;;41.18;8.98;;;;;;;42.64;28.36;99426.46;1815875;77;21030;-76
2022/08/22 11:37:48;;;;;;;43.28;9.30;;;;;;;43.02;28.07;99422.82;1823661;77;21006;-73
2022/08/22 11:40:37;;;;;;;49.00;10.13;;;;;;;43.16;27.76;99426.23;1811681;77;21185;-76
2022/08/22 11:43:29;;;;;;;55.80;11.33;;;;;;;43.07;27.70;99420.22;1806604;77;21168;-74
2022/08/22 11:45:58;;;;;;;44.75;9.25;;;;;;;43.08;27.80;99428.22;1797730;77;21053;-75
2022/08/22 11:48:39;;;;;;;53.65;11.05;;;;;;;43.16;27.98;99422.83;1810865;77;21506;-77
2022/08/22 11:51:20;;;;;;;41.73;8.98;;;;;;;43.20;27.84;99424.23;1795584;77;26732;-75
2022/08/22 11:53:51;;;;;;;46.53;11.75;;;;;;;43.30;28.05;99415.08;1814635;77;21117;-74
2022/08/22 11:56:33;;;;;;;40.08;9.58;;;;;;;43.51;27.74;99421.28;1816794;76;21525;-87
2022/08/22 11:59:39;;;;;;;43.38;10.55;;;;;;;43.53;27.75;99424.48;1830978;77;21018;-80
2022/08/22 12:02:03;;;;;;;39.73;9.83;;;;;;;43.55;27.59;99416.48;1814825;77;21072;-87
2022/08/22 12:04:43;;;;;;;45.30;9.30;;;;;;;43.40;27.63;99417.08;1826697;76;21491;-87
2022/08/22 12:07:21;;;;;;;45.35;10.20;;;;;;;43.44;27.69;99417.08;1813681;77;21215;-91
2022/08/22 12:10:10;;;;;;;48.23;11.30;;;;;;;43.41;27.19;99416.50;1796671;77;21038;-85
2022/08/22 12:12:59;;;;;;;48.38;11.00;;;;;;;43.14;27.49;99416.05;1807328;77;21190;-83
2022/08/22 12:15:41;;;;;;;51.73;13.53;;;;;;;43.05;27.33;99417.03;1814470;77;21037;-83
2022/08/22 12:18:31;;;;;;;54.13;10.98;;;;;;;42.81;27.14;99417.34;1823283;77;21030;-83
2022/08/22 12:21:32;;;;;;;64.32;12.25;;;;;;;42.78;27.14;99415.32;1784045;77;21617;-85
2022/08/22 12:24:19;;;;;;;40.65;10.75;;;;;;;42.77;26.95;99405.36;1799153;77;21026;-81
2022/08/22 12:27:14;;;;;;;44.35;11.00;;;;;;;42.53;26.95;99418.03;1791288;77;20987;-83
2022/08/22 12:30:04;;;;;;;61.73;12.23;;;;;;;42.42;26.91;99413.78;1806508;78;20975;-87
2022/08/22 12:33:10;;;;;;;59.15;12.53;;;;;;;42.39;26.81;99413.16;1786360;79;20998;-80
2022/08/22 12:35:54;;;;;;;70.35;12.88;;;;;;;42.29;27.04;99418.11;1785612;77;21160;-82
2022/08/22 12:38:36;;;;;;;65.78;13.83;;;;;;;42.12;27.23;99419.59;1824277;77;21026;-83
2022/08/22 12:41:23;;;;;;;60.15;13.28;;;;;;;41.86;27.21;99419.19;1808564;77;21026;-84
2022/08/22 12:44:27;;;;;;;55.73;14.20;;;;;;;41.49;27.80;99415.10;1820034;77;21145;-73
2022/08/22 12:47:23;;;;;;;56.05;12.82;;;;;;;41.49;27.80;99415.10;1820625;77;21120;-77
2022/08/22 12:50:01;;;;;;;58.70;12.95;;;;;;;40.70;28.39;99417.82;1832105;77;21143;-75